createdAt,value
2023-04-23T00:01:44.902Z,0.80
2023-04-23T00:04:12.281Z,0.90
2023-04-23T00:06:39.920Z,0.73
2023-04-23T00:09:07.281Z,0.77
2023-04-23T00:11:34.127Z,0.90
2023-04-23T00:14:00.835Z,0.88
2023-04-23T00:16:27.751Z,0.80
2023-04-23T00:18:54.363Z,1.15
2023-04-23T00:21:20.893Z,0.63
2023-04-23T00:23:47.493Z,0.75
2023-04-23T00:26:13.897Z,0.60
2023-04-23T00:28:40.543Z,1.17
2023-04-23T00:31:07.697Z,0.85
2023-04-23T00:33:34.412Z,0.65
2023-04-23T00:36:01.063Z,0.93
2023-04-23T00:38:27.902Z,0.80
2023-04-23T00:40:54.687Z,0.80
2023-04-23T00:43:21.249Z,0.75
2023-04-23T00:45:49.110Z,0.77
2023-04-23T00:48:16.352Z,0.80
2023-04-23T00:50:43.282Z,1.00
2023-04-23T00:53:09.961Z,0.70
2023-04-23T00:55:36.642Z,1.00
2023-04-23T00:58:03.920Z,0.77
2023-04-23T01:00:30.643Z,0.93
2023-04-23T01:05:25.834Z,0.88
2023-04-23T01:07:52.388Z,0.85
2023-04-23T01:10:19.254Z,0.80
2023-04-23T01:12:48.572Z,0.68
2023-04-23T01:15:15.167Z,0.60
2023-04-23T01:17:43.029Z,0.90
2023-04-23T01:20:10.052Z,0.90
2023-04-23T01:22:37.949Z,0.82
2023-04-23T01:25:04.835Z,0.70
2023-04-23T01:27:33.161Z,1.10
2023-04-23T01:30:01.482Z,0.90
2023-04-23T01:32:28.055Z,0.60
2023-04-23T01:34:56.484Z,0.90
2023-04-23T01:37:24.855Z,1.25
2023-04-23T01:39:51.942Z,0.80
2023-04-23T01:42:18.492Z,0.82
2023-04-23T01:44:45.082Z,0.80
2023-04-23T01:47:11.864Z,0.95
2023-04-23T01:49:38.397Z,0.90
2023-04-23T01:52:05.128Z,0.80
2023-04-23T01:54:31.740Z,0.98
2023-04-23T01:56:58.824Z,0.70
2023-04-23T01:59:25.994Z,0.80
2023-04-23T02:01:52.681Z,0.70
2023-04-23T02:04:19.921Z,0.73
2023-04-23T02:06:49.492Z,0.80
2023-04-23T02:09:16.608Z,0.70
2023-04-23T02:11:43.195Z,0.80
2023-04-23T02:14:10.181Z,1.10
2023-04-23T02:16:36.733Z,0.68
2023-04-23T02:19:03.787Z,0.90
2023-04-23T02:21:32.117Z,0.70
2023-04-23T02:23:58.801Z,0.90
2023-04-23T02:26:25.439Z,0.70
2023-04-23T02:28:52.123Z,0.80
2023-04-23T02:31:20.585Z,0.98
2023-04-23T02:33:47.735Z,0.77
2023-04-23T02:36:14.390Z,1.00
2023-04-23T02:38:42.426Z,0.85
2023-04-23T02:41:09.199Z,0.70
2023-04-23T02:43:35.884Z,0.70
2023-04-23T02:46:08.155Z,0.75
2023-04-23T02:48:40.983Z,0.65
2023-04-23T02:51:10.780Z,0.90
2023-04-23T02:53:37.520Z,1.63
2023-04-23T02:56:04.386Z,1.10
2023-04-23T02:58:31.826Z,0.90
2023-04-23T03:01:00.429Z,1.00
2023-04-23T03:03:31.716Z,0.95
2023-04-23T03:06:00.981Z,1.15
2023-04-23T03:08:27.969Z,0.63
2023-04-23T03:10:54.527Z,0.77
2023-04-23T03:13:21.423Z,1.05
2023-04-23T03:15:48.243Z,0.50
2023-04-23T03:18:14.859Z,0.73
2023-04-23T03:20:42.046Z,0.73
2023-04-23T03:23:09.147Z,0.98
2023-04-23T03:25:35.736Z,0.70
2023-04-23T03:28:02.287Z,0.73
2023-04-23T03:30:29.537Z,0.82
2023-04-23T03:32:57.345Z,0.70
2023-04-23T03:35:26.452Z,1.05
2023-04-23T03:37:55.125Z,0.57
2023-04-23T03:40:23.434Z,0.88
2023-04-23T03:42:53.199Z,0.70
2023-04-23T03:45:26.651Z,1.00
2023-04-23T03:47:53.252Z,0.73
2023-04-23T03:50:19.861Z,0.90
2023-04-23T03:52:56.103Z,0.70
2023-04-23T03:55:42.674Z,0.60
2023-04-23T03:58:09.327Z,0.70
2023-04-23T04:00:43.304Z,0.60
2023-04-23T04:03:09.954Z,0.73
2023-04-23T04:05:36.624Z,1.00
2023-04-23T04:08:04.918Z,0.73
2023-04-23T04:10:31.442Z,0.80
2023-04-23T04:12:58.009Z,0.90
2023-04-23T04:15:24.728Z,0.50
2023-04-23T04:17:51.318Z,0.57
2023-04-23T04:20:17.903Z,1.00
2023-04-23T04:22:44.479Z,0.85
2023-04-23T04:25:12.194Z,0.52
2023-04-23T04:27:39.132Z,0.80
2023-04-23T04:30:06.737Z,1.00
2023-04-23T04:32:33.439Z,0.52
2023-04-23T04:34:59.968Z,0.75
2023-04-23T04:37:27.999Z,0.80
2023-04-23T04:39:54.955Z,0.65
2023-04-23T04:42:21.507Z,1.08
2023-04-23T04:44:48.056Z,0.98
2023-04-23T04:47:16.285Z,0.93
2023-04-23T04:49:42.858Z,0.73
2023-04-23T04:52:09.392Z,0.85
2023-04-23T04:54:35.941Z,0.80
2023-04-23T04:57:02.576Z,0.80
2023-04-23T04:59:29.197Z,0.82
2023-04-23T05:01:56.590Z,1.02
2023-04-23T05:04:23.194Z,0.70
2023-04-23T05:06:49.733Z,0.63
2023-04-23T05:09:17.165Z,0.73
2023-04-23T05:11:43.860Z,0.75
2023-04-23T05:14:10.751Z,1.10
2023-04-23T05:16:37.358Z,0.88
2023-04-23T05:19:04.013Z,0.75
2023-04-23T05:21:31.482Z,0.75
2023-04-23T05:23:58.022Z,0.50
2023-04-23T05:26:24.612Z,1.05
2023-04-23T05:28:51.162Z,0.95
2023-04-23T05:31:17.819Z,0.82
2023-04-23T05:33:49.725Z,0.80
2023-04-23T05:36:17.524Z,0.60
2023-04-23T05:38:44.076Z,0.93
2023-04-23T05:41:10.720Z,0.80
2023-04-23T05:43:37.307Z,0.88
2023-04-23T05:46:07.577Z,0.55
2023-04-23T05:48:34.513Z,0.60
2023-04-23T05:51:01.176Z,0.65
2023-04-23T05:53:28.127Z,1.20
2023-04-23T05:55:54.664Z,0.88
2023-04-23T05:58:21.217Z,1.00
2023-04-23T06:00:47.829Z,0.93
2023-04-23T06:03:14.809Z,0.77
2023-04-23T06:05:43.239Z,0.80
2023-04-23T06:08:09.945Z,0.85
2023-04-23T06:10:36.450Z,0.90
2023-04-23T06:13:03.183Z,0.80
2023-04-23T06:15:29.782Z,0.80
2023-04-23T06:17:56.468Z,0.68
2023-04-23T06:20:23.031Z,1.00
2023-04-23T06:22:49.585Z,1.20
2023-04-23T06:25:16.444Z,1.10
2023-04-23T06:27:43.031Z,0.93
2023-04-23T06:30:16.802Z,0.82
2023-04-23T06:32:44.295Z,0.82
2023-04-23T06:35:10.823Z,1.08
2023-04-23T06:37:37.416Z,0.75
2023-04-23T06:40:04.403Z,0.80
2023-04-23T06:42:30.962Z,0.80
2023-04-23T06:45:16.549Z,0.88
2023-04-23T06:47:43.143Z,0.70
2023-04-23T06:50:09.766Z,0.77
2023-04-23T06:52:36.666Z,1.10
2023-04-23T06:55:03.693Z,0.50
2023-04-23T06:57:30.263Z,0.88
2023-04-23T06:59:56.875Z,0.63
2023-04-23T07:02:27.387Z,1.23
2023-04-23T07:04:53.949Z,0.77
2023-04-23T07:07:20.454Z,0.85
2023-04-23T07:09:47.173Z,0.52
2023-04-23T07:12:13.784Z,1.15
2023-04-23T07:14:40.486Z,0.85
2023-04-23T07:17:07.212Z,0.60
2023-04-23T07:19:33.738Z,0.65
2023-04-23T07:22:00.319Z,1.45
2023-04-23T07:24:26.844Z,0.90
2023-04-23T07:26:53.653Z,0.70
2023-04-23T07:29:20.990Z,0.73
2023-04-23T07:31:48.238Z,0.80
2023-04-23T07:34:14.798Z,0.75
2023-04-23T07:36:41.334Z,0.80
2023-04-23T07:39:07.945Z,0.70
2023-04-23T07:41:35.296Z,0.80
2023-04-23T07:44:01.961Z,0.70
2023-04-23T07:46:28.533Z,0.80
2023-04-23T07:48:55.555Z,0.77
2023-04-23T07:51:26.369Z,0.60
2023-04-23T07:53:54.324Z,0.73
2023-04-23T07:56:24.597Z,0.93
2023-04-23T07:58:53.630Z,0.77
2023-04-23T08:01:20.169Z,0.88
2023-04-23T08:03:46.783Z,1.33
2023-04-23T08:06:13.628Z,0.90
2023-04-23T08:08:40.230Z,1.00
2023-04-23T08:11:07.476Z,0.90
2023-04-23T08:13:34.206Z,0.80
2023-04-23T08:16:00.792Z,0.80
2023-04-23T08:18:27.377Z,1.10
2023-04-23T08:20:54.758Z,0.73
2023-04-23T08:23:21.323Z,0.80
2023-04-23T08:25:47.864Z,0.98
2023-04-23T08:28:14.435Z,0.63
2023-04-23T08:30:41.129Z,0.85
2023-04-23T08:33:07.743Z,0.95
2023-04-23T08:35:34.282Z,0.77
2023-04-23T08:38:01.667Z,1.00
2023-04-23T08:40:31.101Z,1.10
2023-04-23T08:43:10.799Z,0.70
2023-04-23T08:45:41.574Z,0.95
2023-04-23T08:48:09.975Z,1.00
2023-04-23T08:50:37.960Z,0.88
2023-04-23T08:53:06.365Z,0.63
2023-04-23T08:55:35.560Z,0.90
2023-04-23T08:58:06.123Z,1.27
2023-04-23T09:00:34.639Z,0.80
2023-04-23T09:03:01.750Z,0.50
2023-04-23T09:05:28.870Z,0.45
2023-04-23T09:07:57.711Z,0.70
2023-04-23T09:10:24.327Z,0.70
2023-04-23T09:12:51.094Z,0.50
2023-04-23T09:15:17.672Z,1.00
2023-04-23T09:17:46.604Z,0.88
2023-04-23T09:20:14.646Z,0.70
2023-04-23T09:22:47.607Z,0.90
2023-04-23T09:25:17.751Z,0.73
2023-04-23T09:27:45.706Z,0.88
2023-04-23T09:30:12.761Z,0.90
2023-04-23T09:32:42.193Z,0.47
2023-04-23T09:35:10.895Z,0.88
2023-04-23T09:37:41.603Z,0.90
2023-04-23T09:40:08.774Z,0.63
2023-04-23T09:42:36.937Z,1.10
2023-04-23T09:45:08.421Z,0.70
2023-04-23T09:47:38.781Z,0.80
2023-04-23T09:50:06.131Z,0.95
2023-04-23T09:52:33.979Z,0.50
2023-04-23T09:55:05.218Z,0.77
2023-04-23T09:57:40.823Z,0.82
2023-04-23T10:00:19.795Z,1.25
2023-04-23T10:02:49.159Z,0.65
2023-04-23T10:07:49.891Z,0.95
2023-04-23T10:10:17.639Z,0.90
2023-04-23T10:12:54.442Z,1.10
2023-04-23T10:15:25.275Z,0.70
2023-04-23T10:17:53.154Z,0.80
2023-04-23T10:20:22.699Z,0.70
2023-04-23T10:22:49.438Z,0.93
2023-04-23T10:25:16.234Z,0.60
2023-04-23T10:27:51.863Z,0.63
2023-04-23T10:30:20.377Z,0.85
2023-04-23T10:32:48.840Z,0.60
2023-04-23T10:35:15.544Z,0.60
2023-04-23T10:37:43.009Z,0.52
2023-04-23T10:40:14.031Z,0.80
2023-04-23T10:42:42.165Z,0.60
2023-04-23T10:45:23.399Z,0.73
2023-04-23T10:47:53.154Z,1.05
2023-04-23T10:50:23.127Z,0.75
2023-04-23T10:52:54.091Z,0.63
2023-04-23T10:55:23.126Z,0.63
2023-04-23T10:58:01.281Z,0.75
2023-04-23T11:00:41.175Z,0.75
2023-04-23T11:03:37.276Z,0.80
2023-04-23T11:06:06.581Z,0.98
2023-04-23T11:08:35.845Z,0.65
2023-04-23T11:11:07.779Z,0.70
2023-04-23T11:13:34.447Z,0.90
2023-04-23T11:16:23.254Z,0.80
2023-04-23T11:19:03.095Z,0.80
2023-04-23T11:22:03.457Z,0.73
2023-04-23T11:24:31.572Z,0.60
2023-04-23T11:26:59.523Z,0.68
2023-04-23T11:29:27.809Z,0.80
2023-04-23T11:34:26.158Z,0.80
2023-04-23T11:36:54.726Z,0.80
2023-04-23T11:39:24.620Z,0.77
2023-04-23T11:41:52.335Z,0.52
2023-04-23T11:44:20.798Z,1.00
2023-04-23T11:46:49.286Z,0.95
2023-04-23T11:49:17.060Z,0.77
2023-04-23T11:51:45.010Z,0.95
2023-04-23T11:54:13.572Z,0.82
2023-04-23T11:56:41.512Z,0.70
2023-04-23T11:59:08.736Z,0.90
2023-04-23T12:01:47.294Z,0.88
2023-04-23T12:04:22.268Z,0.85
2023-04-23T12:06:50.408Z,0.82
2023-04-23T12:09:19.739Z,0.80
2023-04-23T12:11:46.842Z,1.00
2023-04-23T12:14:15.076Z,1.00
2023-04-23T12:16:47.099Z,1.10
2023-04-23T12:19:19.118Z,0.82
2023-04-23T12:21:50.290Z,0.68
2023-04-23T12:24:17.027Z,0.80
2023-04-23T12:26:44.322Z,0.77
2023-04-23T12:29:13.722Z,0.80
2023-04-23T12:31:40.442Z,1.10
2023-04-23T12:34:08.704Z,0.70
2023-04-23T12:36:37.353Z,1.27
2023-04-23T12:39:22.127Z,0.93
2023-04-23T12:41:51.032Z,1.10
2023-04-23T12:44:17.665Z,1.15
2023-04-23T12:46:44.596Z,0.80
2023-04-23T12:49:11.269Z,0.90
2023-04-23T12:51:37.808Z,0.82
2023-04-23T12:54:04.515Z,0.80
2023-04-23T12:56:31.096Z,0.75
2023-04-23T12:58:57.638Z,0.60
2023-04-23T13:01:24.165Z,0.68
2023-04-23T13:03:50.942Z,1.08
2023-04-23T13:06:17.596Z,0.60
2023-04-23T13:08:44.151Z,0.85
2023-04-23T13:11:11.201Z,0.82
2023-04-23T13:13:37.884Z,0.98
2023-04-23T13:16:04.669Z,1.00
2023-04-23T13:18:31.305Z,0.75
2023-04-23T13:20:57.914Z,1.05
2023-04-23T13:23:24.921Z,0.60
2023-04-23T13:25:51.461Z,0.80
2023-04-23T13:28:17.984Z,0.90
2023-04-23T13:30:44.622Z,0.63
2023-04-23T13:33:11.154Z,0.98
2023-04-23T13:35:37.831Z,1.40
2023-04-23T13:38:04.935Z,0.80
2023-04-23T13:40:31.497Z,0.70
2023-04-23T13:42:58.085Z,0.60
2023-04-23T13:45:25.951Z,0.77
2023-04-23T13:47:52.581Z,0.70
2023-04-23T13:50:19.281Z,0.82
2023-04-23T13:52:45.862Z,0.70
2023-04-23T13:55:12.453Z,0.85
2023-04-23T13:57:39.705Z,0.75
2023-04-23T14:00:07.001Z,1.05
2023-04-23T14:02:33.715Z,0.98
2023-04-23T14:05:03.620Z,1.02
2023-04-23T14:07:30.232Z,1.00
2023-04-23T14:09:56.748Z,0.70
2023-04-23T14:12:24.051Z,1.10
2023-04-23T14:14:50.685Z,0.90
2023-04-23T14:17:17.205Z,0.93
2023-04-23T14:19:44.145Z,0.85
2023-04-23T14:22:10.814Z,1.00
2023-04-23T14:24:46.313Z,0.65
2023-04-23T14:27:12.943Z,0.88
2023-04-23T14:29:39.576Z,0.80
2023-04-23T14:32:06.444Z,0.70
2023-04-23T14:34:35.668Z,0.70
2023-04-23T14:37:03.289Z,0.88
2023-04-23T14:39:30.057Z,0.85
2023-04-23T14:41:56.691Z,0.90
2023-04-23T14:44:23.493Z,1.15
2023-04-23T14:46:51.087Z,1.00
2023-04-23T14:49:18.263Z,1.00
2023-04-23T14:51:44.770Z,1.08
2023-04-23T14:54:11.371Z,0.90
2023-04-23T14:56:38.021Z,0.93
2023-04-23T14:59:04.718Z,1.10
2023-04-23T15:01:31.427Z,0.88
2023-04-23T15:03:58.097Z,1.15
2023-04-23T15:06:24.752Z,1.88
2023-04-23T15:08:51.266Z,0.90
2023-04-23T15:11:17.974Z,1.10
2023-04-23T15:14:03.485Z,1.10
2023-04-23T15:19:06.557Z,1.05
2023-04-23T15:21:33.249Z,1.58
2023-04-23T15:23:59.772Z,1.17
2023-04-23T15:26:26.882Z,1.15
2023-04-23T15:28:53.452Z,1.00
2023-04-23T15:31:20.013Z,1.10
2023-04-23T15:33:47.757Z,1.00
2023-04-23T15:36:15.376Z,0.88
2023-04-23T15:38:41.977Z,0.90
2023-04-23T15:41:08.542Z,1.10
2023-04-23T15:43:35.098Z,0.85
2023-04-23T15:46:01.817Z,1.20
2023-04-23T15:48:28.602Z,1.50
2023-04-23T15:50:55.412Z,1.00
2023-04-23T15:53:22.909Z,0.90
2023-04-23T15:55:52.593Z,0.93
2023-04-23T15:58:19.771Z,1.02
2023-04-23T16:00:46.741Z,1.38
2023-04-23T16:03:14.976Z,1.58
2023-04-23T16:05:42.228Z,1.80
2023-04-23T16:08:09.457Z,2.05
2023-04-23T16:10:38.072Z,1.17
2023-04-23T16:13:04.685Z,0.90
2023-04-23T16:15:31.286Z,1.20
2023-04-23T16:17:59.791Z,0.90
2023-04-23T16:20:28.065Z,1.08
2023-04-23T16:22:54.968Z,1.02
2023-04-23T16:25:22.832Z,1.02
2023-04-23T16:27:49.524Z,0.88
2023-04-23T16:30:16.614Z,0.90
2023-04-23T16:32:43.163Z,0.95
2023-04-23T16:35:09.887Z,1.00
2023-04-23T16:37:36.586Z,0.85
2023-04-23T16:40:03.940Z,1.02
2023-04-23T16:42:30.468Z,1.63
2023-04-23T16:44:57.038Z,0.90
2023-04-23T16:47:23.640Z,1.00
2023-04-23T16:49:50.985Z,1.55
2023-04-23T16:52:17.529Z,1.55
2023-04-23T16:54:44.509Z,0.80
2023-04-23T16:57:11.443Z,1.02
2023-04-23T16:59:38.078Z,0.90
2023-04-23T17:02:05.376Z,0.90
2023-04-23T17:04:32.031Z,1.27
2023-04-23T17:06:59.003Z,1.30
2023-04-23T17:09:25.587Z,1.08
2023-04-23T17:11:52.245Z,1.10
2023-04-23T17:14:18.752Z,1.67
2023-04-23T17:16:45.394Z,1.08
2023-04-23T17:19:11.927Z,0.90
2023-04-23T17:21:38.623Z,1.00
2023-04-23T17:24:05.738Z,1.10
2023-04-23T17:26:32.301Z,0.95
2023-04-23T17:28:58.835Z,0.50
2023-04-23T17:31:25.464Z,1.10
2023-04-23T17:33:53.486Z,0.95
2023-04-23T17:36:20.116Z,0.93
2023-04-23T17:38:46.696Z,0.88
2023-04-23T17:41:13.330Z,1.00
2023-04-23T17:43:39.919Z,1.02
2023-04-23T17:46:06.551Z,1.02
2023-04-23T17:48:33.107Z,1.25
2023-04-23T17:50:59.682Z,1.10
2023-04-23T17:53:26.285Z,0.90
2023-04-23T17:55:53.806Z,1.02
2023-04-23T17:58:21.351Z,1.17
2023-04-23T18:00:48.116Z,1.00
2023-04-23T18:03:17.470Z,1.00
2023-04-23T18:05:45.022Z,0.90
2023-04-23T18:08:11.600Z,0.90
2023-04-23T18:10:38.377Z,0.88
2023-04-23T18:13:06.343Z,0.88
2023-04-23T18:15:32.846Z,0.98
2023-04-23T18:17:59.711Z,1.08
2023-04-23T18:20:26.770Z,1.05
2023-04-23T18:22:56.182Z,0.68
2023-04-23T18:25:24.984Z,1.45
2023-04-23T18:27:51.602Z,2.88
2023-04-23T18:30:22.980Z,1.98
2023-04-23T18:32:59.306Z,1.23
2023-04-23T18:35:25.966Z,1.30
2023-04-23T18:38:02.605Z,1.50
2023-04-23T18:40:29.232Z,1.17
2023-04-23T18:42:55.930Z,1.30
2023-04-23T18:45:22.735Z,1.45
2023-04-23T18:48:00.754Z,0.90
2023-04-23T18:50:48.008Z,0.50
2023-04-23T18:53:14.520Z,0.45
2023-04-23T18:55:41.054Z,0.47
2023-04-23T18:58:07.672Z,0.20
2023-04-23T19:00:34.499Z,0.95
2023-04-23T19:03:06.428Z,0.30
2023-04-23T19:05:33.983Z,0.32
2023-04-23T19:08:00.750Z,0.30
2023-04-23T19:10:27.246Z,0.30
2023-04-23T19:12:54.484Z,0.40
2023-04-23T19:15:21.051Z,0.28
2023-04-23T19:17:48.064Z,0.22
2023-04-23T19:20:15.576Z,0.40
2023-04-23T19:22:42.451Z,0.30
2023-04-23T19:25:09.355Z,0.40
2023-04-23T19:27:36.215Z,0.30
2023-04-23T19:30:04.968Z,0.50
2023-04-23T19:32:35.257Z,0.57
2023-04-23T19:35:02.585Z,0.40
2023-04-23T19:37:29.161Z,0.40
2023-04-23T19:39:55.716Z,0.32
2023-04-23T19:42:22.625Z,0.85
2023-04-23T19:44:49.624Z,0.55
2023-04-23T19:47:17.108Z,0.50
2023-04-23T19:49:44.699Z,0.25
2023-04-23T19:52:21.196Z,0.45
2023-04-23T19:54:49.954Z,0.40
2023-04-23T19:57:18.372Z,0.40
2023-04-23T19:59:48.713Z,0.40
2023-04-23T20:02:16.630Z,0.30
2023-04-23T20:04:45.501Z,0.32
2023-04-23T20:07:12.582Z,0.35
2023-04-23T20:09:41.685Z,0.30
2023-04-23T20:12:08.676Z,0.47
2023-04-23T20:14:35.341Z,0.40
2023-04-23T20:17:02.031Z,0.20
2023-04-23T20:19:30.646Z,0.43
2023-04-23T20:21:57.171Z,0.20
2023-04-23T20:24:23.770Z,0.30
2023-04-23T20:26:50.858Z,0.30
2023-04-23T20:29:17.499Z,0.17
2023-04-23T20:31:48.672Z,0.38
2023-04-23T20:34:18.383Z,0.13
2023-04-23T20:36:48.903Z,0.45
2023-04-23T20:39:16.682Z,1.02
2023-04-23T20:41:43.198Z,0.30
2023-04-23T20:44:09.984Z,0.40
2023-04-23T20:46:36.701Z,0.52
2023-04-23T20:49:03.826Z,0.20
2023-04-23T20:51:34.657Z,0.10
2023-04-23T20:54:02.173Z,0.35
2023-04-23T20:56:29.792Z,0.30
2023-04-23T20:58:59.707Z,0.40
2023-04-23T21:01:27.080Z,0.30
2023-04-23T21:03:54.220Z,0.45
2023-04-23T21:06:21.934Z,0.45
2023-04-23T21:08:48.562Z,0.22
2023-04-23T21:11:17.666Z,0.68
2023-04-23T21:13:47.110Z,0.20
2023-04-23T21:16:14.222Z,0.35
2023-04-23T21:18:41.391Z,0.20
2023-04-23T21:21:08.030Z,0.38
2023-04-23T21:23:34.826Z,0.20
2023-04-23T21:26:01.509Z,0.40
2023-04-23T21:28:28.080Z,0.20
2023-04-23T21:30:55.952Z,0.20
2023-04-23T21:33:24.815Z,0.30
2023-04-23T21:35:53.061Z,0.40
2023-04-23T21:38:20.244Z,0.15
2023-04-23T21:40:47.206Z,0.32
2023-04-23T21:43:13.928Z,0.38
2023-04-23T21:45:40.526Z,0.20
2023-04-23T21:48:07.134Z,0.17
2023-04-23T21:50:33.792Z,0.13
2023-04-23T21:53:03.116Z,0.20
2023-04-23T21:55:33.642Z,0.30
2023-04-23T21:58:15.859Z,0.20
2023-04-23T22:00:45.103Z,0.30
2023-04-23T22:03:12.623Z,0.52
2023-04-23T22:05:43.118Z,0.40
2023-04-23T22:08:09.675Z,0.30
2023-04-23T22:10:42.743Z,0.17
2023-04-23T22:13:09.834Z,0.30
2023-04-23T22:15:36.813Z,0.10
2023-04-23T22:18:03.562Z,0.50
2023-04-23T22:20:30.933Z,0.30
2023-04-23T22:22:57.684Z,0.40
2023-04-23T22:25:24.289Z,0.35
2023-04-23T22:27:50.847Z,0.40
2023-04-23T22:30:17.451Z,0.20
2023-04-23T22:32:44.052Z,0.30
2023-04-23T22:35:10.674Z,0.40
2023-04-23T22:37:37.680Z,0.30
2023-04-23T22:40:05.485Z,0.10
2023-04-23T22:42:32.093Z,0.30
2023-04-23T22:44:58.732Z,0.22
2023-04-23T22:47:25.302Z,0.30
2023-04-23T22:49:51.896Z,0.30
2023-04-23T22:52:18.513Z,0.30
2023-04-23T22:54:45.915Z,0.25
2023-04-23T22:57:12.556Z,0.25
2023-04-23T22:59:39.958Z,0.20
2023-04-23T23:02:07.322Z,0.17
2023-04-23T23:04:37.708Z,0.43
2023-04-23T23:07:05.877Z,0.30
2023-04-23T23:09:32.789Z,0.30
2023-04-23T23:12:02.260Z,0.28
2023-04-23T23:14:29.371Z,0.40
2023-04-23T23:16:57.062Z,0.22
2023-04-23T23:19:24.610Z,0.10
2023-04-23T23:21:51.474Z,0.50
2023-04-23T23:24:18.998Z,0.73
2023-04-23T23:26:46.536Z,0.30
2023-04-23T23:29:13.107Z,0.28
2023-04-23T23:31:39.696Z,0.13
2023-04-23T23:34:06.477Z,0.20
2023-04-23T23:36:33.955Z,0.40
2023-04-23T23:39:00.791Z,0.20
2023-04-23T23:41:27.377Z,0.20
2023-04-23T23:43:54.030Z,0.30
2023-04-23T23:46:21.019Z,0.20
2023-04-23T23:48:47.631Z,0.10
2023-04-23T23:51:14.353Z,0.30
2023-04-23T23:53:40.896Z,0.30
2023-04-23T23:56:07.472Z,0.20
2023-04-23T23:58:33.983Z,0.20
